Inglefield, Indiana
Current Conditions -  °F | °C
As of 12:54 AM on Friday 19 Dec 2014 (Local Time) from KEVV Reporting Station
Overcast Overcast  
Wind Chill: 26°   Ceiling: 8000
Heat Index: 32°   Visibility: 8mi
Dew Point: 25°   Wind: 6mph
Humidity: 75%   Direction: 360°N
Pressure: 30.28"   Gusts: NA
Location:  38.11°N, 87.56°W
Report Text: KEVV 190654Z AUTO 36005KT 8SM OVC080 00/M04 A3028 RMK AO2 SLP259 T00001039
Loading
Personal Weather Stations






























Interactive Weather Map New forecast layout! Learn more

10-Day Weather Forecast

Advertisements
Track Severe Weather on mobile